Trevor, Wisconsin
Current Conditions -  °F | °C
As of 2:53 AM on Saturday 20 Dec 2014 (Local Time) from KENW Reporting Station
Overcast Overcast  
Wind Chill: 22°   Ceiling: 2500
Heat Index: 27°   Visibility: 8mi
Dew Point: 21°   Wind: 5mph
Humidity: 78%   Direction: 290°WNW
Pressure: 30.28"   Gusts: NA
Location:  42.51°N, 88.12°W
Report Text: KENW 200853Z AUTO 29004KT 8SM OVC025 M03/M06 A3028 RMK AO2 SLP263 T10281061 53006
Loading
Personal Weather Stations






























Interactive Weather Map New forecast layout! Learn more

10-Day Weather Forecast

Advertisements
Track Severe Weather on mobile